»·PEaware :: QXE2244 KSEA-KBOI

QXE2244 :: KSEA-KBOI

FLIGHT INFORMATION

Flight Status: Arrived
Operator:
Horizon Air
More flights by this operator :: More flights under this callsign
Pilot: Aaron T. (8357)
Aircraft: DEHAVILLAND DASH 8 400
(DH8D)
More flights by this aircraft type
Origin: KSEA Seattle-Tacoma Intl
United States
Destination: KBOI Boise Air Terminal/Gowen
United States
More flights between these airports :: More routes between these airports
Route: SUMMA1 SUMMA J54 BKE HOSTS PARMO3
File this flight plan on PilotEdge
Remarks: RMK / SIMBRIEF
Altitude:
(Current/Filed)
25,000ft
Speed:
(Current/Filed)
327kts
Departed: 13-Jun-19 12:21 PM
Arrived: 13-Jun-19 01:43 PM
Distance/Time
Traveled:
346nm/1:22
Distance/Time
To Go:
Arrived

Flight Plot

Page will automatically refresh every two minutes.

Flight plan parsing failed; only flown route is shown


Map Options




Map Legend


Flown Route
Filed Route
Departure Airport
Arrival Airport
Navaid (VOR, NDB)
Fix

Horizontal Profiles

Position Reports

Time Latitude Longitude Heading Altitude Ground
Speed
13-Jun-19 11:51 47.446018 -122.303056 282 440ft 0kts
13-Jun-19 11:52 47.446018 -122.303056 282 440ft 0kts
13-Jun-19 11:53 47.446018 -122.303056 282 440ft 0kts
13-Jun-19 11:54 47.446018 -122.303056 282 440ft 0kts
13-Jun-19 11:55 47.446018 -122.303056 282 440ft 0kts
13-Jun-19 11:56 47.446018 -122.303056 282 440ft 0kts
13-Jun-19 11:57 47.446018 -122.303056 282 440ft 0kts
13-Jun-19 11:58 47.446018 -122.303056 282 440ft 0kts
13-Jun-19 11:59 47.446018 -122.303056 282 440ft 0kts
13-Jun-19 12:00 47.446018 -122.303056 282 440ft 0kts
13-Jun-19 12:01 47.446018 -122.303056 282 440ft 0kts
13-Jun-19 12:02 47.446018 -122.303056 282 440ft 0kts
13-Jun-19 12:03 47.446018 -122.303056 282 440ft 0kts
13-Jun-19 12:04 47.446018 -122.303056 282 440ft 0kts
13-Jun-19 12:05 47.446018 -122.303056 282 440ft 0kts
13-Jun-19 12:06 47.446018 -122.303057 282 440ft 0kts
13-Jun-19 12:07 47.446018 -122.303057 282 440ft 0kts
13-Jun-19 12:08 47.446018 -122.303057 282 440ft 0kts
13-Jun-19 12:09 47.446018 -122.303057 282 440ft 0kts
13-Jun-19 12:10 47.446018 -122.303057 282 440ft 0kts
13-Jun-19 12:11 47.445988 -122.302874 286 440ft 2kts
13-Jun-19 12:12 47.445608 -122.302416 24 440ft 1kts
13-Jun-19 12:13 47.445528 -122.302470 24 440ft 0kts
13-Jun-19 12:14 47.446133 -122.302097 15 440ft 6kts
13-Jun-19 12:15 47.447700 -122.304158 306 440ft 11kts
13-Jun-19 12:16 47.450615 -122.306292 0 440ft 16kts
13-Jun-19 12:17 47.454032 -122.306265 359 440ft 1kts
13-Jun-19 12:18 47.459294 -122.306228 0 440ft 27kts
13-Jun-19 12:19 47.463797 -122.307017 267 440ft 7kts
13-Jun-19 12:20 47.451308 -122.307761 176 450ft 135kts
13-Jun-19 12:21 47.400439 -122.312127 186 1342ft 237kts
13-Jun-19 12:23 47.338805 -122.315905 177 4289ft 222kts
13-Jun-19 12:24 47.275938 -122.312164 174 6611ft 229kts
13-Jun-19 12:25 47.214647 -122.288681 147 8664ft 234kts
13-Jun-19 12:26 47.156121 -122.245969 160 10244ft 241kts
13-Jun-19 12:27 47.091327 -122.214296 161 12063ft 245kts
13-Jun-19 12:28 47.027398 -122.183257 161 13919ft 244kts
13-Jun-19 12:29 46.961841 -122.151813 161 15497ft 249kts
13-Jun-19 12:30 46.895348 -122.120179 161 16899ft 253kts
13-Jun-19 12:31 46.827897 -122.088098 161 18163ft 257kts
13-Jun-19 12:32 46.759208 -122.055548 161 19258ft 261kts
13-Jun-19 12:33 46.689852 -122.022496 161 20242ft 265kts
13-Jun-19 12:34 46.621227 -121.981871 136 21133ft 270kts
13-Jun-19 12:35 46.579093 -121.890074 120 21912ft 275kts
13-Jun-19 12:36 46.545324 -121.804817 120 22451ft 276kts
13-Jun-19 12:37 46.506473 -121.707013 120 23079ft 281kts
13-Jun-19 12:38 46.467034 -121.607850 120 23691ft 283kts
13-Jun-19 12:39 46.427170 -121.508313 120 24229ft 286kts
13-Jun-19 12:40 46.387161 -121.408588 121 24719ft 288kts
13-Jun-19 12:40 46.353077 -121.323868 121 24913ft 297kts
13-Jun-19 12:42 46.303233 -121.200977 121 24926ft 310kts
13-Jun-19 12:43 46.259018 -121.092602 121 24907ft 318kts
13-Jun-19 12:43 46.230378 -121.022303 121 24894ft 315kts
13-Jun-19 12:45 46.178152 -120.894611 121 24897ft 320kts
13-Jun-19 12:45 46.140170 -120.802217 121 24895ft 322kts
13-Jun-19 12:46 46.094450 -120.691094 121 24893ft 324kts
13-Jun-19 12:48 46.040602 -120.560996 121 24892ft 325kts
13-Jun-19 12:48 46.002140 -120.468435 121 24876ft 326kts
13-Jun-19 12:49 45.956046 -120.357913 121 24869ft 326kts
13-Jun-19 12:50 45.909576 -120.246867 122 24867ft 326kts
13-Jun-19 12:51 45.862876 -120.135810 122 24864ft 326kts
13-Jun-19 12:52 45.815825 -120.024329 122 24871ft 326kts
13-Jun-19 12:53 45.768852 -119.913437 122 24876ft 326kts
13-Jun-19 12:54 45.721910 -119.803103 122 24874ft 326kts
13-Jun-19 12:55 45.674355 -119.692399 122 24881ft 326kts
13-Jun-19 12:56 45.627222 -119.582488 122 24881ft 327kts
13-Jun-19 12:57 45.579783 -119.472002 122 24885ft 327kts
13-Jun-19 12:58 45.531937 -119.361517 122 24891ft 327kts
13-Jun-19 12:59 45.484120 -119.251231 122 24877ft 328kts
13-Jun-19 13:00 45.436076 -119.140901 122 24896ft 330kts
13-Jun-19 13:01 45.387410 -119.029547 123 24902ft 332kts
13-Jun-19 13:02 45.338554 -118.918221 123 24914ft 334kts
13-Jun-19 13:03 45.289169 -118.806179 123 24933ft 335kts
13-Jun-19 13:04 45.240295 -118.695697 123 24998ft 335kts
13-Jun-19 13:05 45.190705 -118.583866 123 25009ft 336kts
13-Jun-19 13:06 45.140807 -118.472148 123 25009ft 337kts
13-Jun-19 13:07 45.090587 -118.359918 123 25008ft 338kts
13-Jun-19 13:08 45.040064 -118.247450 123 25004ft 339kts
13-Jun-19 13:09 44.989630 -118.135116 123 25007ft 339kts
13-Jun-19 13:10 44.937288 -118.020071 123 24192ft 361kts
13-Jun-19 13:11 44.882078 -117.898808 124 22995ft 367kts
13-Jun-19 13:12 44.814684 -117.799105 161 21552ft 357kts
13-Jun-19 13:13 44.719789 -117.768618 168 20304ft 350kts
13-Jun-19 13:14 44.626505 -117.737131 167 19117ft 345kts
13-Jun-19 13:15 44.553169 -117.713030 167 18226ft 345kts
13-Jun-19 13:16 44.460917 -117.682777 167 17192ft 337kts
13-Jun-19 13:17 44.373644 -117.654116 167 17034ft 308kts
13-Jun-19 13:18 44.293395 -117.627861 168 17027ft 288kts
13-Jun-19 13:19 44.216498 -117.602892 168 17021ft 280kts
13-Jun-19 13:20 44.141564 -117.578561 168 17028ft 274kts
13-Jun-19 13:21 44.065334 -117.554010 167 17010ft 286kts
13-Jun-19 13:22 43.990417 -117.517028 135 17000ft 298kts
13-Jun-19 13:23 43.950233 -117.415197 114 16992ft 305kts
13-Jun-19 13:24 43.915997 -117.306647 113 16988ft 309kts
13-Jun-19 13:25 43.881502 -117.198334 114 16989ft 311kts
13-Jun-19 13:26 43.846159 -117.088033 114 16984ft 317kts
13-Jun-19 13:27 43.810116 -116.976309 114 16875ft 321kts
13-Jun-19 13:28 43.772795 -116.861597 114 15679ft 330kts
13-Jun-19 13:29 43.725182 -116.759684 131 14435ft 303kts
13-Jun-19 13:30 43.676472 -116.677486 129 13113ft 264kts
13-Jun-19 13:31 43.630817 -116.598890 129 11865ft 258kts
13-Jun-19 13:32 43.586458 -116.522918 129 10617ft 251kts
13-Jun-19 13:33 43.551865 -116.448034 115 9483ft 255kts
13-Jun-19 13:34 43.526755 -116.373144 115 8436ft 256kts
13-Jun-19 13:35 43.497902 -116.289123 115 7254ft 234kts
13-Jun-19 13:36 43.472185 -116.212059 106 7012ft 206kts
13-Jun-19 13:37 43.449947 -116.139920 115 6998ft 205kts
13-Jun-19 13:38 43.471968 -116.070000 33 6403ft 233kts
13-Jun-19 13:39 43.517872 -116.073016 295 5414ft 180kts
13-Jun-19 13:40 43.535368 -116.136930 296 4309ft 178kts
13-Jun-19 13:41 43.554492 -116.191197 296 3089ft 148kts
13-Jun-19 13:42 43.565476 -116.223043 294 2878ft 16kts
13-Jun-19 13:43 43.565476 -116.219241 115 2878ft 22kts
13-Jun-19 13:44 43.566819 -116.216273 1 2878ft 13kts
13-Jun-19 13:45 43.566428 -116.215631 179 2878ft 0kts
13-Jun-19 13:46 43.566428 -116.215631 179 2878ft 0kts
13-Jun-19 13:47 43.566428 -116.215631 179 2878ft 0kts

Navigation Log

Ident Type
Flight plan parsing failed, navigation log unavailable